Time;durP1;ratioP1;P1;durP2;ratioP2;P2;SDS_P1;SDS_P2;PMS_P1;PMS_P2;Temp;Humidity;BMP_temperature;BMP_pressure;BME280_temperature;BME280_humidity;BME280_pressure;Samples;Min_cycle;Max_cycle;Signal;HPM_P1;HPM_P2
2021/06/22 00:02:23;;;;;;;6.18;4.68;;;;;;;19.05;98.05;100150.16;5071367;28;20040;-83
2021/06/22 00:04:50;;;;;;;5.85;3.90;;;;;;;19.16;95.32;100155.69;5080395;28;20043;-82
2021/06/22 00:07:19;;;;;;;6.72;4.60;;;;;;;19.16;96.33;100163.72;5075287;28;20044;-84
2021/06/22 00:09:47;;;;;;;6.55;4.78;;;;;;;19.16;97.21;100177.09;5070130;28;20040;-84
2021/06/22 00:12:14;;;;;;;7.43;6.38;;;;;;;19.32;97.64;100172.47;5060206;28;20049;-82
2021/06/22 00:14:42;;;;;;;7.15;5.35;;;;;;;19.40;95.85;100178.22;5063737;28;20078;-82
2021/06/22 00:17:09;;;;;;;5.90;4.55;;;;;;;19.33;97.57;100182.25;5102853;28;20576;-85
2021/06/22 00:19:36;;;;;;;8.70;6.18;;;;;;;19.34;98.57;100188.50;5075367;28;20464;-82
2021/06/22 00:22:03;;;;;;;6.68;5.93;;;;;;;19.37;99.42;100185.59;5098197;28;20443;-83
2021/06/22 00:24:29;;;;;;;8.40;5.93;;;;;;;19.46;98.81;100185.00;5075714;28;20055;-83
2021/06/22 00:26:56;;;;;;;7.13;5.47;;;;;;;19.55;98.51;100172.81;5051801;28;20052;-82
2021/06/22 00:29:24;;;;;;;7.57;6.68;;;;;;;19.70;99.38;100184.41;5057263;28;20077;-82
2021/06/22 00:31:51;;;;;;;5.97;5.32;;;;;;;19.73;96.86;100178.81;5060083;28;20400;-83
2021/06/22 00:34:18;;;;;;;7.72;5.70;;;;;;;19.76;98.49;100179.50;5052760;28;20036;-84
2021/06/22 00:36:44;;;;;;;10.82;7.88;;;;;;;19.82;100.00;100187.13;5074225;28;20093;-83
2021/06/22 00:39:11;;;;;;;8.25;6.82;;;;;;;19.89;99.12;100193.78;5078716;28;20039;-83
2021/06/22 00:41:38;;;;;;;8.82;7.28;;;;;;;19.86;99.61;100185.09;5057922;28;20105;-83
2021/06/22 00:44:09;;;;;;;8.73;7.25;;;;;;;19.89;100.00;100177.72;5061775;28;20048;-82
2021/06/22 00:46:36;;;;;;;9.27;7.93;;;;;;;20.02;100.00;100195.66;5081800;28;20056;-83
2021/06/22 00:49:04;;;;;;;7.75;5.82;;;;;;;20.08;98.35;100198.78;5058849;28;20056;-83
2021/06/22 00:51:30;;;;;;;7.22;6.53;;;;;;;20.11;97.97;100197.72;5056706;28;20052;-83
2021/06/22 00:53:59;;;;;;;10.57;8.43;;;;;;;20.12;100.00;100199.44;5060740;28;20089;-83
2021/06/22 00:56:25;;;;;;;8.65;7.72;;;;;;;20.15;99.62;100200.09;5061804;28;20089;-82
2021/06/22 00:58:52;;;;;;;10.15;8.23;;;;;;;20.20;99.68;100203.34;5065588;28;20094;-82
2021/06/22 01:01:18;;;;;;;13.52;8.82;;;;;;;20.18;100.00;100201.72;5059156;28;20044;-82
2021/06/22 01:03:45;;;;;;;11.82;8.68;;;;;;;20.17;100.00;100206.19;5058842;28;20040;-82
2021/06/22 01:06:12;;;;;;;9.35;8.10;;;;;;;20.12;100.00;100216.41;5057369;28;20063;-82
2021/06/22 01:08:39;;;;;;;11.35;7.90;;;;;;;20.12;100.00;100211.03;5075226;28;20044;-82
2021/06/22 01:11:05;;;;;;;10.93;8.75;;;;;;;20.17;100.00;100206.19;5074842;28;20101;-82
2021/06/22 01:13:32;;;;;;;11.73;8.48;;;;;;;20.17;100.00;100198.16;5062402;28;20414;-82
2021/06/22 01:15:59;;;;;;;9.68;8.45;;;;;;;20.18;100.00;100196.34;5053917;28;20044;-83
2021/06/22 01:18:25;;;;;;;12.27;9.57;;;;;;;20.23;100.00;100211.16;5056802;28;20079;-82
2021/06/22 01:20:56;;;;;;;11.00;9.40;;;;;;;20.15;100.00;100228.72;5061942;28;20040;-82
2021/06/22 01:23:23;;;;;;;11.20;8.50;;;;;;;20.21;100.00;100225.66;5048314;28;20036;-83
2021/06/22 01:25:50;;;;;;;9.45;8.40;;;;;;;20.21;100.00;100231.88;5073346;28;20559;-83
2021/06/22 01:28:16;;;;;;;10.57;9.05;;;;;;;20.24;100.00;100231.66;5058415;28;20109;-81
2021/06/22 01:30:43;;;;;;;12.88;10.48;;;;;;;20.31;100.00;100225.88;5058041;28;20035;-82
2021/06/22 01:33:10;;;;;;;18.25;11.20;;;;;;;20.18;100.00;100225.88;5061385;28;20040;-82
2021/06/22 01:35:37;;;;;;;16.02;12.02;;;;;;;20.26;100.00;100239.59;5074151;28;20582;-82
2021/06/22 01:38:06;;;;;;;17.13;13.07;;;;;;;20.22;100.00;100241.63;5085588;28;21447;-84
2021/06/22 01:40:41;;;;;;;14.98;11.15;;;;;;;20.18;100.00;100250.00;5077602;28;20043;-83
2021/06/22 01:43:08;;;;;;;16.52;13.40;;;;;;;20.25;100.00;100270.91;5077128;28;20040;-83
2021/06/22 01:45:35;;;;;;;18.25;13.23;;;;;;;20.32;100.00;100279.44;5057058;28;20055;-83
2021/06/22 01:48:01;;;;;;;15.00;12.05;;;;;;;20.34;99.52;100290.06;5075642;28;20093;-83
2021/06/22 01:50:28;;;;;;;15.23;12.45;;;;;;;20.34;99.33;100285.53;5073116;28;20593;-82
2021/06/22 01:52:55;;;;;;;15.10;12.70;;;;;;;20.35;99.16;100278.38;5070975;28;20040;-83
2021/06/22 01:55:35;;;;;;;15.20;11.30;;;;;;;20.33;98.39;100272.25;5059428;28;20040;-83
2021/06/22 01:58:05;;;;;;;14.52;10.27;;;;;;;20.30;98.51;100278.69;5058426;28;20044;-84
2021/06/22 02:00:32;;;;;;;13.35;10.93;;;;;;;20.31;96.90;100274.16;5054884;28;20056;-84
2021/06/22 02:02:58;;;;;;;11.27;10.07;;;;;;;20.27;98.42;100267.31;5060952;28;20082;-84
2021/06/22 02:05:25;;;;;;;15.18;9.70;;;;;;;20.23;97.37;100270.16;5059184;28;20043;-83
2021/06/22 02:07:52;;;;;;;10.00;8.80;;;;;;;20.10;98.42;100265.75;5074587;28;20051;-83
2021/06/22 02:10:19;;;;;;;11.18;9.15;;;;;;;20.00;98.85;100272.66;5088584;28;20044;-83
2021/06/22 02:12:46;;;;;;;10.27;9.20;;;;;;;20.00;98.96;100273.50;5068385;28;20077;-84
2021/06/22 02:15:13;;;;;;;11.15;8.93;;;;;;;20.13;97.32;100274.44;5055508;28;20068;-83
2021/06/22 02:17:40;;;;;;;12.50;8.80;;;;;;;20.01;98.49;100288.66;5071744;28;20046;-82
2021/06/22 02:20:08;;;;;;;11.82;8.63;;;;;;;20.07;97.65;100282.03;5078943;28;20451;-83
2021/06/22 02:22:35;;;;;;;10.93;8.73;;;;;;;20.01;97.99;100275.25;5070348;28;20049;-81
2021/06/22 02:25:04;;;;;;;10.35;9.15;;;;;;;20.01;98.15;100282.41;5083705;28;20048;-81
2021/06/22 02:27:32;;;;;;;12.68;10.05;;;;;;;19.97;98.23;100276.41;5050926;28;20105;-84
2021/06/22 02:29:59;;;;;;;11.80;9.30;;;;;;;19.84;97.79;100286.19;5056350;28;20036;-84
2021/06/22 02:32:26;;;;;;;10.88;9.68;;;;;;;19.84;98.33;100288.88;5058024;28;20532;-82
2021/06/22 02:34:53;;;;;;;14.02;9.80;;;;;;;19.77;99.08;100292.94;5093359;28;20044;-80
2021/06/22 02:37:19;;;;;;;10.20;8.93;;;;;;;19.81;98.35;100311.38;5056439;28;20451;-83
2021/06/22 02:39:47;;;;;;;10.60;8.45;;;;;;;19.67;99.23;100319.44;5087804;28;20051;-82
2021/06/22 02:42:14;;;;;;;10.38;9.32;;;;;;;19.58;98.91;100326.25;5071941;28;20048;-82
2021/06/22 02:44:41;;;;;;;16.83;11.48;;;;;;;19.53;99.45;100324.81;5057845;28;20035;-81
2021/06/22 02:47:08;;;;;;;12.75;10.88;;;;;;;19.60;99.09;100326.19;5069824;28;20509;-82
2021/06/22 02:49:34;;;;;;;11.32;8.95;;;;;;;19.45;100.00;100338.66;5037405;28;20131;-82
2021/06/22 02:52:02;;;;;;;12.57;9.98;;;;;;;19.49;99.74;100342.88;5062370;28;20463;-82
2021/06/22 02:54:28;;;;;;;10.93;8.90;;;;;;;19.46;100.00;100348.44;5074040;28;20040;-83
2021/06/22 02:56:55;;;;;;;10.80;8.35;;;;;;;19.46;100.00;100332.34;5062366;28;20040;-83
2021/06/22 02:59:22;;;;;;;12.85;11.00;;;;;;;19.38;100.00;100334.66;5051122;28;20044;-82
2021/06/22 03:01:48;;;;;;;11.63;9.35;;;;;;;19.44;100.00;100336.09;5078907;28;20044;-82
2021/06/22 03:04:15;;;;;;;10.60;8.85;;;;;;;19.49;100.00;100350.03;5089841;28;20508;-82
2021/06/22 03:06:42;;;;;;;10.95;9.32;;;;;;;19.57;100.00;100345.09;5072865;28;20055;-81
2021/06/22 03:09:08;;;;;;;11.32;9.38;;;;;;;19.49;100.00;100353.59;5100806;28;20040;-82
2021/06/22 03:11:35;;;;;;;11.32;10.10;;;;;;;19.48;100.00;100357.22;5066269;28;20444;-82
2021/06/22 03:14:02;;;;;;;11.43;9.52;;;;;;;19.42;100.00;100362.97;5085536;28;20037;-83
2021/06/22 03:16:28;;;;;;;12.98;9.52;;;;;;;19.45;100.00;100362.78;5060346;28;20040;-82
2021/06/22 03:18:55;;;;;;;13.85;10.90;;;;;;;19.47;100.00;100362.69;5057289;28;20086;-82
2021/06/22 03:21:22;;;;;;;10.00;8.60;;;;;;;19.41;100.00;100362.09;5078398;28;20485;-83
2021/06/22 03:23:49;;;;;;;11.25;9.45;;;;;;;19.54;99.38;100358.69;5075742;28;20100;-83
2021/06/22 03:26:16;;;;;;;12.93;9.60;;;;;;;19.57;99.47;100362.03;5063676;28;20075;-83
2021/06/22 03:28:43;;;;;;;10.20;9.00;;;;;;;19.64;97.71;100359.84;5082306;28;20562;-84
2021/06/22 03:31:10;;;;;;;11.52;9.98;;;;;;;19.55;97.53;100361.25;5059322;28;20062;-82
2021/06/22 03:33:37;;;;;;;13.18;10.02;;;;;;;19.60;97.18;100355.66;5100647;28;20043;-82
2021/06/22 03:36:04;;;;;;;9.27;8.20;;;;;;;19.53;96.50;100357.81;5061365;28;20040;-82
2021/06/22 03:38:31;;;;;;;12.20;10.25;;;;;;;19.41;96.67;100351.38;5055128;28;20402;-82
2021/06/22 03:40:58;;;;;;;10.80;9.63;;;;;;;19.32;97.58;100348.41;5056943;28;20040;-81
2021/06/22 03:43:25;;;;;;;12.90;10.07;;;;;;;19.36;96.02;100350.81;5060500;28;20417;-82
2021/06/22 03:45:54;;;;;;;10.63;8.75;;;;;;;19.42;96.60;100360.28;5058495;28;20055;-81
2021/06/22 03:48:21;;;;;;;12.93;10.13;;;;;;;19.47;96.17;100366.22;5060296;28;20036;-81
2021/06/22 03:50:48;;;;;;;13.90;9.95;;;;;;;19.48;97.19;100359.91;5070237;28;20047;-81
2021/06/22 03:53:14;;;;;;;12.88;10.45;;;;;;;19.48;95.16;100356.38;5093023;28;20040;-82
2021/06/22 03:55:41;;;;;;;10.63;8.93;;;;;;;19.49;96.04;100361.63;5057737;28;20104;-82
2021/06/22 03:58:08;;;;;;;11.90;10.52;;;;;;;19.45;94.83;100370.81;5076057;28;20048;-83
2021/06/22 04:00:34;;;;;;;11.80;9.02;;;;;;;19.44;94.71;100368.25;5071213;28;20044;-81
2021/06/22 04:03:01;;;;;;;13.93;11.02;;;;;;;19.25;93.27;100368.50;5092844;28;20062;-83
2021/06/22 04:05:30;;;;;;;14.30;9.82;;;;;;;19.25;91.65;100368.50;5072413;28;20032;-80
2021/06/22 04:07:57;;;;;;;10.98;7.93;;;;;;;19.21;93.15;100367.81;5076255;28;20036;-82
2021/06/22 04:10:24;;;;;;;10.77;8.48;;;;;;;19.04;91.99;100370.66;5073468;28;20051;-81
2021/06/22 04:12:50;;;;;;;9.40;7.90;;;;;;;19.11;92.38;100380.06;5092364;28;20101;-80
2021/06/22 04:15:17;;;;;;;10.27;7.93;;;;;;;19.09;90.70;100384.66;5074111;28;20036;-83
2021/06/22 04:17:45;;;;;;;9.35;6.93;;;;;;;19.07;92.30;100386.53;5070284;28;20041;-81
2021/06/22 04:20:12;;;;;;;8.65;7.05;;;;;;;19.16;90.88;100385.13;5056303;28;20705;-81
2021/06/22 04:22:39;;;;;;;9.20;6.53;;;;;;;19.09;89.81;100385.50;5075220;28;20113;-82
2021/06/22 04:25:06;;;;;;;9.75;7.63;;;;;;;18.88;89.58;100388.59;5058974;28;20427;-82
2021/06/22 04:27:33;;;;;;;8.13;7.20;;;;;;;18.93;88.58;100391.88;5060921;28;20044;-81
2021/06/22 04:29:59;;;;;;;6.82;5.97;;;;;;;19.05;89.91;100389.31;5091790;28;20048;-81
2021/06/22 04:32:26;;;;;;;7.85;6.10;;;;;;;19.07;88.40;100392.75;5055085;28;20059;-81
2021/06/22 04:34:53;;;;;;;7.95;6.53;;;;;;;19.21;87.95;100391.06;5058974;28;20048;-80
2021/06/22 04:37:20;;;;;;;8.23;6.40;;;;;;;19.32;87.52;100383.22;5058012;28;20374;-81
2021/06/22 04:39:47;;;;;;;7.03;5.78;;;;;;;19.26;85.76;100395.22;5054901;28;20052;-81
2021/06/22 04:42:14;;;;;;;7.95;7.15;;;;;;;19.27;85.93;100404.97;5069022;28;20039;-81
2021/06/22 04:44:40;;;;;;;7.68;6.25;;;;;;;19.14;85.59;100393.25;5092636;28;20035;-82
2021/06/22 04:47:07;;;;;;;9.55;6.43;;;;;;;19.15;85.61;100396.78;5073830;28;20590;-81
2021/06/22 04:49:34;;;;;;;10.52;6.43;;;;;;;19.15;85.30;100388.75;5091982;28;20044;-83
2021/06/22 04:52:00;;;;;;;7.53;6.30;;;;;;;19.14;85.01;100393.25;5072710;28;20036;-83
2021/06/22 04:54:27;;;;;;;8.07;6.35;;;;;;;19.09;85.76;100392.69;5065965;28;20045;-82
2021/06/22 04:56:54;;;;;;;6.82;5.38;;;;;;;19.11;86.54;100399.66;5074269;28;20047;-81
2021/06/22 04:59:21;;;;;;;8.32;5.93;;;;;;;19.13;86.08;100402.25;5058736;28;20047;-81
2021/06/22 05:01:47;;;;;;;8.77;5.50;;;;;;;19.19;84.48;100409.91;5061536;28;20055;-81
2021/06/22 05:04:14;;;;;;;8.77;5.85;;;;;;;18.90;85.56;100419.66;5092382;28;20059;-81
2021/06/22 05:06:41;;;;;;;6.40;5.15;;;;;;;18.93;86.94;100413.28;5077559;28;20446;-82
2021/06/22 05:09:07;;;;;;;6.93;5.15;;;;;;;18.99;87.48;100413.75;5086576;28;20089;-81
2021/06/22 05:11:34;;;;;;;7.22;5.80;;;;;;;19.02;88.15;100420.78;5107011;28;20082;-82
2021/06/22 05:14:01;;;;;;;7.47;5.60;;;;;;;19.04;87.86;100425.06;5072491;28;20036;-81
2021/06/22 05:16:28;;;;;;;11.65;7.07;;;;;;;19.08;85.37;100431.09;5072232;28;20615;-82
2021/06/22 05:18:55;;;;;;;7.18;5.63;;;;;;;19.11;86.79;100458.56;5071552;28;20055;-81
2021/06/22 05:21:21;;;;;;;10.88;7.18;;;;;;;18.80;86.73;100463.97;5054044;28;20043;-81
2021/06/22 05:23:50;;;;;;;11.23;7.85;;;;;;;18.89;87.14;100471.47;5083920;28;20047;-82
2021/06/22 05:26:18;;;;;;;10.18;7.40;;;;;;;18.91;87.94;100472.25;5076779;28;20064;-81
2021/06/22 05:28:45;;;;;;;9.82;6.95;;;;;;;18.87;88.76;100469.84;5074897;28;20715;-83
2021/06/22 05:31:13;;;;;;;13.23;8.40;;;;;;;18.83;86.60;100479.84;5073034;28;20044;-81
2021/06/22 05:33:40;;;;;;;12.02;7.70;;;;;;;18.88;87.34;100479.59;5072422;28;20037;-82
2021/06/22 05:36:07;;;;;;;9.82;6.53;;;;;;;18.72;87.79;100482.28;5056849;28;20052;-80
2021/06/22 05:38:34;;;;;;;14.27;7.85;;;;;;;18.78;89.60;100489.97;5076026;28;20055;-81
2021/06/22 05:41:00;;;;;;;11.07;7.82;;;;;;;18.68;89.24;100491.47;5060185;28;20073;-82
2021/06/22 05:43:28;;;;;;;9.85;7.63;;;;;;;18.61;90.12;100485.56;5055575;28;20105;-82
2021/06/22 05:45:54;;;;;;;11.65;8.57;;;;;;;18.68;90.64;100486.09;5088240;28;20439;-82
2021/06/22 05:48:22;;;;;;;11.88;7.97;;;;;;;18.50;90.89;100487.97;5078783;28;20036;-83
2021/06/22 05:50:48;;;;;;;11.95;8.57;;;;;;;18.49;90.76;100488.91;5074493;28;20108;-82
2021/06/22 05:53:15;;;;;;;13.68;8.38;;;;;;;18.53;90.74;100488.66;5071432;28;20044;-82
2021/06/22 05:55:41;;;;;;;8.30;7.35;;;;;;;18.48;90.24;100490.72;5104452;28;20042;-82
2021/06/22 05:58:08;;;;;;;13.07;8.48;;;;;;;18.52;91.55;100488.75;5057619;28;20523;-83
2021/06/22 06:00:35;;;;;;;12.73;7.65;;;;;;;18.56;91.94;100501.84;5072588;28;20044;-82
2021/06/22 06:03:02;;;;;;;9.68;8.00;;;;;;;18.51;90.49;100500.41;5057345;28;20040;-84
2021/06/22 06:05:29;;;;;;;11.05;7.40;;;;;;;18.39;91.00;100495.72;5059482;28;20044;-83
2021/06/22 06:07:56;;;;;;;11.60;7.60;;;;;;;18.29;90.79;100493.56;5072967;28;20043;-82
2021/06/22 06:10:24;;;;;;;12.23;7.60;;;;;;;18.32;91.77;100500.53;5073057;28;20033;-83
2021/06/22 06:12:51;;;;;;;11.57;8.85;;;;;;;18.13;91.92;100499.81;5075891;28;20036;-82
2021/06/22 06:15:19;;;;;;;10.52;7.07;;;;;;;18.20;92.84;100494.06;5059346;28;20119;-82
2021/06/22 06:17:47;;;;;;;11.80;7.72;;;;;;;17.99;92.84;100492.53;5093361;28;20533;-83
2021/06/22 06:20:15;;;;;;;10.55;7.40;;;;;;;18.19;94.59;100499.50;5060145;28;20040;-83
2021/06/22 06:22:43;;;;;;;12.68;7.85;;;;;;;18.20;91.04;100501.22;5087910;28;20505;-82
2021/06/22 06:25:12;;;;;;;13.25;8.18;;;;;;;18.26;91.01;100503.56;5051260;28;20421;-82
2021/06/22 06:27:47;;;;;;;11.38;7.22;;;;;;;18.12;92.90;100520.34;5079148;28;20150;-83
2021/06/22 06:30:18;;;;;;;8.70;6.38;;;;;;;18.11;91.78;100521.31;5063775;28;20540;-82
2021/06/22 06:32:45;;;;;;;9.07;6.80;;;;;;;18.08;91.15;100515.28;5049629;28;20059;-82
2021/06/22 06:35:12;;;;;;;10.25;6.40;;;;;;;17.94;92.20;100530.22;5064406;28;20040;-82
2021/06/22 06:37:39;;;;;;;10.15;5.50;;;;;;;17.96;91.41;100538.16;5054976;28;20047;-82
2021/06/22 06:40:06;;;;;;;8.63;5.20;;;;;;;17.96;92.76;100541.69;5051537;28;20391;-83
2021/06/22 06:42:33;;;;;;;9.55;5.88;;;;;;;17.89;91.69;100540.28;5064459;28;20036;-82
2021/06/22 06:45:00;;;;;;;13.00;5.97;;;;;;;17.90;92.02;100541.13;5054225;28;20036;-82
2021/06/22 06:47:27;;;;;;;7.30;5.13;;;;;;;18.06;91.37;100541.19;5073786;28;20044;-82
2021/06/22 06:49:53;;;;;;;5.57;4.93;;;;;;;18.00;90.87;100531.72;5074200;28;20040;-82
2021/06/22 06:52:20;;;;;;;8.00;5.63;;;;;;;17.99;90.27;100530.84;5069655;28;20094;-83
2021/06/22 06:54:47;;;;;;;7.40;4.72;;;;;;;18.06;89.69;100535.84;5067948;28;20055;-82
2021/06/22 06:57:14;;;;;;;5.57;4.55;;;;;;;18.29;88.79;100528.31;5069851;28;20459;-83
2021/06/22 06:59:41;;;;;;;8.10;4.63;;;;;;;18.54;88.32;100532.31;5051627;28;20042;-80
2021/06/22 07:02:09;;;;;;;6.53;4.43;;;;;;;18.47;84.41;100545.16;5067285;28;20514;-78
2021/06/22 07:04:36;;;;;;;7.60;4.20;;;;;;;18.46;87.00;100550.63;5091543;28;20057;-79
2021/06/22 07:07:02;;;;;;;7.80;4.68;;;;;;;18.59;84.95;100562.38;5084428;28;20048;-79
2021/06/22 07:09:29;;;;;;;5.97;4.13;;;;;;;18.59;84.48;100569.53;5065780;28;20109;-79
2021/06/22 07:11:57;;;;;;;6.10;4.25;;;;;;;18.54;84.65;100562.63;5052499;28;20040;-78
2021/06/22 07:14:24;;;;;;;6.50;4.38;;;;;;;18.54;84.26;100567.97;5088569;28;20531;-81
2021/06/22 07:16:51;;;;;;;5.93;3.85;;;;;;;18.18;85.89;100570.84;5083884;28;20517;-80
2021/06/22 07:19:18;;;;;;;5.22;3.63;;;;;;;18.39;87.14;100562.59;5056004;28;20048;-78
2021/06/22 07:21:46;;;;;;;5.47;3.90;;;;;;;18.43;86.50;100550.78;5088576;28;20040;-79
2021/06/22 07:24:13;;;;;;;3.95;3.35;;;;;;;18.44;87.07;100558.72;5055622;28;20059;-80
2021/06/22 07:26:39;;;;;;;4.85;3.38;;;;;;;18.63;85.37;100563.91;5071101;28;20055;-80
2021/06/22 07:29:06;;;;;;;4.07;3.40;;;;;;;18.68;84.99;100575.28;5072964;28;20446;-80
2021/06/22 07:31:34;;;;;;;4.55;3.60;;;;;;;18.65;83.13;100582.56;5071985;28;20441;-81
2021/06/22 07:34:01;;;;;;;4.55;2.90;;;;;;;18.76;85.19;100582.88;5073707;28;20039;-80
2021/06/22 07:36:28;;;;;;;3.65;2.80;;;;;;;18.80;85.05;100593.31;5071095;28;20052;-79
2021/06/22 07:38:55;;;;;;;5.07;2.72;;;;;;;18.90;79.93;100587.44;5070753;28;20456;-80
2021/06/22 07:41:22;;;;;;;4.32;2.97;;;;;;;18.86;81.99;100589.44;5102188;28;20036;-79
2021/06/22 07:43:49;;;;;;;4.70;3.13;;;;;;;18.91;81.00;100590.03;5085206;28;20470;-79
2021/06/22 07:46:16;;;;;;;2.92;2.53;;;;;;;18.81;81.20;100597.72;5082273;28;20426;-79
2021/06/22 07:48:43;;;;;;;3.35;2.83;;;;;;;19.00;81.48;100604.72;5089393;28;20569;-79
2021/06/22 07:51:10;;;;;;;4.05;2.90;;;;;;;18.98;80.01;100595.91;5086431;28;20040;-79
2021/06/22 07:53:37;;;;;;;5.07;2.70;;;;;;;18.83;80.58;100581.56;5071418;28;20040;-80
2021/06/22 07:56:03;;;;;;;4.03;2.67;;;;;;;19.01;81.18;100585.06;5066309;28;20078;-81
2021/06/22 07:58:30;;;;;;;3.20;2.50;;;;;;;19.07;78.82;100592.72;5068374;28;20516;-80
2021/06/22 08:00:57;;;;;;;3.72;2.53;;;;;;;19.13;80.49;100579.84;5057836;28;20047;-80
2021/06/22 08:03:27;;;;;;;3.47;2.92;;;;;;;19.24;79.95;100591.75;5072013;28;20102;-80
2021/06/22 08:05:54;;;;;;;3.25;2.33;;;;;;;19.23;79.04;100590.88;5086774;28;20036;-80
2021/06/22 08:08:22;;;;;;;3.53;2.28;;;;;;;19.23;79.05;100579.31;5075575;28;20036;-80
2021/06/22 08:10:52;;;;;;;4.10;2.58;;;;;;;19.31;78.97;100587.78;5056030;28;20044;-80
2021/06/22 08:13:20;;;;;;;3.53;2.55;;;;;;;19.30;78.12;100586.06;5074734;28;20561;-79
2021/06/22 08:15:47;;;;;;;6.50;2.40;;;;;;;19.23;77.86;100592.72;5092376;28;20040;-80
2021/06/22 08:18:14;;;;;;;4.68;3.00;;;;;;;19.15;77.65;100581.56;5075651;28;20036;-79
2021/06/22 08:20:41;;;;;;;3.45;2.35;;;;;;;19.13;78.78;100585.19;5074610;28;20977;-79
2021/06/22 08:23:08;;;;;;;3.45;2.28;;;;;;;19.09;77.42;100586.34;5089363;28;22199;-79
2021/06/22 08:25:35;;;;;;;2.45;2.10;;;;;;;19.16;81.32;100588.66;5087347;28;20093;-78
2021/06/22 08:28:02;;;;;;;3.47;2.30;;;;;;;19.08;78.78;100597.13;5073570;28;20065;-79
2021/06/22 08:30:29;;;;;;;2.88;2.45;;;;;;;19.16;78.18;100594.00;5072560;28;20478;-79
2021/06/22 08:32:57;;;;;;;2.63;2.15;;;;;;;19.19;79.48;100589.34;5077879;28;20036;-80
2021/06/22 08:35:26;;;;;;;2.92;2.30;;;;;;;19.27;79.77;100588.91;5071764;28;20097;-81
2021/06/22 08:37:54;;;;;;;2.95;2.60;;;;;;;19.11;79.04;100605.84;5069948;28;20075;-79
2021/06/22 08:40:21;;;;;;;3.45;2.72;;;;;;;19.13;80.21;100603.94;5091178;28;20048;-80
2021/06/22 08:42:48;;;;;;;3.45;3.15;;;;;;;18.84;78.89;100615.44;5074630;28;20044;-80
2021/06/22 08:45:16;;;;;;;4.60;3.33;;;;;;;18.82;80.48;100614.63;5072822;28;20051;-80
2021/06/22 08:47:44;;;;;;;4.05;3.47;;;;;;;18.77;80.44;100625.63;5091032;28;20090;-79
2021/06/22 08:50:13;;;;;;;3.90;3.50;;;;;;;18.75;82.43;100621.28;5057544;28;20089;-80
2021/06/22 08:52:39;;;;;;;4.97;3.38;;;;;;;18.79;81.79;100620.19;5090478;28;20044;-80
2021/06/22 08:55:09;;;;;;;3.47;3.17;;;;;;;18.75;82.04;100632.88;5046230;28;20032;-81
2021/06/22 08:57:36;;;;;;;9.73;4.30;;;;;;;18.82;80.88;100626.22;5055821;28;20040;-79
2021/06/22 09:00:05;;;;;;;4.97;3.53;;;;;;;18.78;81.17;100631.84;5073033;28;20443;-80
2021/06/22 09:02:33;;;;;;;4.78;3.60;;;;;;;18.91;81.15;100630.19;5069751;28;20066;-80
2021/06/22 09:05:01;;;;;;;6.07;3.50;;;;;;;18.86;81.41;100629.59;5076171;28;20166;-79
2021/06/22 09:07:50;;;;;;;3.50;3.20;;;;;;;18.86;80.72;100631.41;5070695;28;20048;-83
2021/06/22 09:10:19;;;;;;;5.20;3.83;;;;;;;18.88;81.61;100633.03;5087823;28;20062;-83
2021/06/22 09:12:46;;;;;;;4.45;3.50;;;;;;;18.73;78.74;100633.88;5057986;28;20089;-79
2021/06/22 09:15:25;;;;;;;4.20;3.80;;;;;;;18.46;80.42;100637.06;5053053;28;20135;-80
2021/06/22 09:17:53;;;;;;;4.82;3.92;;;;;;;18.36;80.87;100638.53;5071553;28;20040;-80
2021/06/22 09:20:31;;;;;;;5.07;3.88;;;;;;;18.46;81.74;100641.56;5068956;28;20055;-80
2021/06/22 09:23:10;;;;;;;4.07;3.63;;;;;;;18.43;83.48;100658.66;5089343;28;20059;-79
2021/06/22 09:25:37;;;;;;;4.25;3.60;;;;;;;18.25;82.93;100651.59;5089225;28;20085;-79
2021/06/22 09:28:04;;;;;;;6.35;3.63;;;;;;;18.39;83.39;100657.06;5091916;28;20032;-80
2021/06/22 09:30:50;;;;;;;5.00;3.92;;;;;;;18.29;84.73;100658.50;5074204;28;20044;-81
2021/06/22 09:33:30;;;;;;;6.65;4.30;;;;;;;18.42;83.47;100658.75;5070108;28;20097;-79
2021/06/22 09:36:02;;;;;;;4.78;4.35;;;;;;;18.37;82.54;100668.81;5088235;28;20061;-80
2021/06/22 09:38:40;;;;;;;5.22;4.07;;;;;;;18.31;82.95;100666.44;5067611;28;20044;-78
2021/06/22 09:41:14;;;;;;;5.88;4.10;;;;;;;18.29;82.92;100669.19;5068128;28;20045;-79
2021/06/22 09:43:42;;;;;;;6.40;4.70;;;;;;;18.36;83.73;100651.03;5090339;28;20168;-78
2021/06/22 09:46:09;;;;;;;6.68;4.75;;;;;;;18.48;82.59;100651.22;5088724;28;20032;-79
2021/06/22 09:48:54;;;;;;;5.20;4.15;;;;;;;18.60;83.08;100655.06;5069917;28;20052;-79
2021/06/22 09:51:27;;;;;;;6.40;4.78;;;;;;;18.34;82.11;100659.13;5087440;28;20048;-79
2021/06/22 09:53:54;;;;;;;5.95;5.35;;;;;;;18.47;84.52;100664.69;5089803;28;20040;-79
2021/06/22 09:56:25;;;;;;;8.98;5.03;;;;;;;18.53;83.30;100683.09;5088382;28;20035;-79
2021/06/22 09:58:52;;;;;;;5.63;4.85;;;;;;;18.51;82.80;100682.31;5088859;28;20449;-79
2021/06/22 10:01:33;;;;;;;5.13;4.10;;;;;;;18.66;85.11;100688.69;5071296;28;20044;-79
2021/06/22 10:04:15;;;;;;;5.20;4.70;;;;;;;18.66;83.93;100694.03;5086746;28;20059;-78
2021/06/22 10:06:47;;;;;;;4.88;4.38;;;;;;;18.85;83.21;100702.81;5088570;28;20044;-79
2021/06/22 10:09:41;;;;;;;4.68;4.15;;;;;;;18.77;83.02;100705.91;5073172;28;20039;-79
2021/06/22 10:12:10;;;;;;;5.28;4.78;;;;;;;18.91;83.14;100702.47;5067702;28;20050;-79
2021/06/22 10:14:39;;;;;;;4.60;3.97;;;;;;;18.95;79.61;100711.22;5088716;28;20043;-79
2021/06/22 10:17:11;;;;;;;7.22;4.35;;;;;;;19.04;82.53;100719.59;5088782;28;20094;-80
2021/06/22 10:19:39;;;;;;;6.85;4.20;;;;;;;18.78;79.56;100709.44;5072775;28;20055;-79
2021/06/22 10:22:06;;;;;;;6.15;4.45;;;;;;;18.90;81.19;100711.44;5068675;28;20455;-79
2021/06/22 10:24:34;;;;;;;5.32;4.25;;;;;;;19.01;78.29;100705.53;5073738;28;20085;-79
2021/06/22 10:27:02;;;;;;;5.40;3.65;;;;;;;19.02;80.33;100709.94;5071967;28;20130;-79
2021/06/22 10:29:31;;;;;;;4.47;4.07;;;;;;;19.01;79.93;100713.56;5089744;28;20101;-80
2021/06/22 10:31:59;;;;;;;6.10;3.90;;;;;;;18.83;80.69;100718.97;5087907;28;20101;-79
2021/06/22 10:34:27;;;;;;;6.10;3.53;;;;;;;18.83;81.51;100721.66;5074887;28;20105;-79
2021/06/22 10:36:57;;;;;;;7.10;4.68;;;;;;;18.74;81.88;100721.25;5068905;28;20094;-80
2021/06/22 10:39:30;;;;;;;4.30;3.90;;;;;;;18.74;81.28;100723.94;5068578;28;20064;-80
2021/06/22 10:41:58;;;;;;;6.57;4.70;;;;;;;18.78;81.52;100723.69;5084209;28;20106;-80
2021/06/22 10:44:27;;;;;;;5.20;4.70;;;;;;;18.99;83.02;100729.69;5056646;28;20093;-80
2021/06/22 10:47:24;;;;;;;6.97;4.93;;;;;;;19.18;80.11;100732.25;5087267;28;20032;-81
2021/06/22 10:49:59;;;;;;;4.97;3.33;;;;;;;19.02;77.77;100726.88;5074607;28;20036;-80
2021/06/22 10:55:19;;;;;;;4.30;3.17;;;;;;;19.21;79.91;100733.91;5077761;28;20501;-81
2021/06/22 10:57:58;;;;;;;5.22;3.80;;;;;;;19.36;79.62;100731.22;5057201;28;20044;-81
2021/06/22 11:00:26;;;;;;;4.75;3.22;;;;;;;19.44;75.51;100730.81;5068207;28;20398;-80
2021/06/22 11:03:22;;;;;;;6.45;3.85;;;;;;;19.37;77.98;100729.41;5071076;28;20047;-81
2021/06/22 11:06:20;;;;;;;4.20;3.38;;;;;;;19.17;75.20;100726.97;5059740;28;20105;-81
2021/06/22 11:08:47;;;;;;;4.30;3.88;;;;;;;19.13;77.18;100728.94;5087256;28;20074;-80
2021/06/22 11:11:13;;;;;;;5.10;3.30;;;;;;;19.17;78.48;100721.59;5088014;28;20039;-80
2021/06/22 11:13:43;;;;;;;5.05;4.03;;;;;;;19.25;79.16;100716.69;5088357;28;20489;-80
2021/06/22 11:16:13;;;;;;;4.43;3.47;;;;;;;19.39;77.62;100730.19;5087195;28;20109;-81
2021/06/22 11:18:55;;;;;;;6.35;4.60;;;;;;;19.50;74.12;100726.91;5090396;28;20063;-81
2021/06/22 11:21:37;;;;;;;5.22;3.42;;;;;;;19.44;72.79;100721.91;5087930;28;20090;-80
2021/06/22 11:24:10;;;;;;;4.25;3.45;;;;;;;19.49;73.06;100725.16;5089201;28;20493;-80
2021/06/22 11:26:58;;;;;;;5.72;3.28;;;;;;;19.47;72.17;100733.31;5069121;28;20086;-79
2021/06/22 11:29:31;;;;;;;4.68;3.38;;;;;;;19.35;72.49;100736.69;5077300;28;20130;-80